createdAt,value
2022-08-17T00:02:25.866Z,101199.28
2022-08-17T00:04:53.147Z,101193.69
2022-08-17T00:07:19.497Z,101187.47
2022-08-17T00:09:46.045Z,101188.59
2022-08-17T00:12:43.259Z,101174.19
2022-08-17T00:14:58.959Z,101170.22
2022-08-17T00:17:25.469Z,101171.19
2022-08-17T00:19:51.843Z,101173.13
2022-08-17T00:22:34.671Z,101174.72
2022-08-17T00:25:05.412Z,101175.19
2022-08-17T00:27:31.834Z,101171.34
2022-08-17T00:29:58.200Z,101162.69
2022-08-17T00:33:15.710Z,101165.59
2022-08-17T00:35:16.040Z,101166.41
2022-08-17T00:37:42.393Z,101159.38
2022-08-17T00:40:13.095Z,101160.47
2022-08-17T00:42:39.965Z,101160.16
2022-08-17T00:45:09.233Z,101157.13
2022-08-17T00:47:36.060Z,101160.31
2022-08-17T00:50:03.704Z,101159.16
2022-08-17T00:52:37.408Z,101157.72
2022-08-17T00:55:05.959Z,101153.88
2022-08-17T00:57:36.840Z,101152.59
2022-08-17T01:00:16.953Z,101153.72
2022-08-17T01:02:45.662Z,101144.91
2022-08-17T01:05:20.951Z,101142.97
2022-08-17T01:07:50.582Z,101138.66
2022-08-17T01:10:59.083Z,101139.31
2022-08-17T01:13:07.439Z,101127.63
2022-08-17T01:15:37.362Z,101132.59
2022-08-17T01:18:10.441Z,101128.94
2022-08-17T01:20:48.414Z,101140.97
2022-08-17T01:23:19.898Z,101128.47
2022-08-17T01:25:51.001Z,101130.41
2022-08-17T01:28:40.701Z,101121.44
2022-08-17T01:31:06.891Z,101123.03
2022-08-17T01:33:33.919Z,101119.19
2022-08-17T01:36:00.652Z,101121.56
2022-08-17T01:38:31.525Z,101127.81
2022-08-17T01:41:04.693Z,101127.00
2022-08-17T01:43:38.955Z,101119.47
2022-08-17T01:46:05.646Z,101122.81
2022-08-17T01:48:34.150Z,101122.13
2022-08-17T01:51:01.150Z,101111.56
2022-08-17T01:53:32.557Z,101110.16
2022-08-17T01:56:04.023Z,101119.66
2022-08-17T01:58:32.296Z,101118.84
2022-08-17T02:01:01.292Z,101118.06
2022-08-17T02:03:29.746Z,101113.09
2022-08-17T02:05:56.476Z,101118.06
2022-08-17T02:08:38.884Z,101119.66
2022-08-17T02:11:12.156Z,101117.53
2022-08-17T02:13:38.731Z,101118.94
2022-08-17T02:16:05.594Z,101129.50
2022-08-17T02:18:32.000Z,101131.88
2022-08-17T02:20:58.587Z,101143.91
2022-08-17T02:23:27.769Z,101149.22
2022-08-17T02:25:57.057Z,101159.63
2022-08-17T02:28:23.598Z,101160.31
2022-08-17T02:31:01.694Z,101166.72
2022-08-17T02:33:43.239Z,101170.75
2022-08-17T02:36:11.774Z,101174.31
2022-08-17T02:38:39.725Z,101187.00
2022-08-17T02:41:06.563Z,101178.34
2022-08-17T02:43:33.116Z,101184.56
2022-08-17T02:45:59.504Z,101191.13
2022-08-17T02:48:31.226Z,101182.97
2022-08-17T02:50:58.827Z,101180.25
2022-08-17T02:53:25.684Z,101174.03
2022-08-17T02:55:52.996Z,101164.75
2022-08-17T02:58:34.945Z,101161.38
2022-08-17T03:01:03.693Z,101154.81
2022-08-17T03:03:30.163Z,101158.66
2022-08-17T03:05:56.552Z,101158.19
2022-08-17T03:08:23.442Z,101157.19
2022-08-17T03:10:50.404Z,101146.78
2022-08-17T03:13:17.278Z,101147.25
2022-08-17T03:15:45.910Z,101141.81
2022-08-17T03:18:24.202Z,101137.28
2022-08-17T03:20:52.004Z,101131.84
2022-08-17T03:23:18.653Z,101128.81
2022-08-17T03:25:50.563Z,101124.16
2022-08-17T03:28:20.719Z,101130.72
2022-08-17T03:30:47.314Z,101132.31
2022-08-17T03:33:13.793Z,101136.31
2022-08-17T03:35:41.165Z,101141.09
2022-08-17T03:38:10.122Z,101135.66
2022-08-17T03:40:57.059Z,101133.41
2022-08-17T03:43:24.178Z,101130.69
2022-08-17T03:46:24.906Z,101138.53
2022-08-17T03:49:14.462Z,101148.94
2022-08-17T03:51:59.150Z,101158.25
2022-08-17T03:54:43.880Z,101167.53
2022-08-17T03:57:12.455Z,101184.66
2022-08-17T03:59:39.432Z,101176.53
2022-08-17T04:02:19.637Z,101182.94
2022-08-17T04:04:46.050Z,101177.84
2022-08-17T04:07:12.609Z,101179.44
2022-08-17T04:09:39.029Z,101172.88
2022-08-17T04:12:05.708Z,101181.22
2022-08-17T04:14:37.856Z,101172.09
2022-08-17T04:17:21.588Z,101181.06
2022-08-17T04:19:48.015Z,101186.38
2022-08-17T04:22:30.461Z,101173.88
2022-08-17T04:25:05.489Z,101180.44
2022-08-17T04:27:31.924Z,101184.44
2022-08-17T04:29:58.588Z,101186.38
2022-08-17T04:33:03.551Z,101185.41
2022-08-17T04:35:11.532Z,101184.47
2022-08-17T04:37:37.903Z,101186.72
2022-08-17T04:40:26.503Z,101183.19
2022-08-17T04:43:01.667Z,101176.97
2022-08-17T04:45:32.021Z,101182.06
2022-08-17T04:47:59.618Z,101180.13
2022-08-17T04:50:26.083Z,101181.25
2022-08-17T04:52:52.496Z,101174.06
2022-08-17T04:55:18.980Z,101170.25
2022-08-17T04:57:45.456Z,101175.03
2022-08-17T05:00:12.425Z,101170.72
2022-08-17T05:02:50.915Z,101174.56
2022-08-17T05:05:23.018Z,101171.53
2022-08-17T05:07:54.331Z,101173.28
2022-08-17T05:10:26.986Z,101175.31
2022-08-17T05:13:07.542Z,101179.00
2022-08-17T05:15:36.620Z,101182.53
2022-08-17T05:18:03.867Z,101186.84
2022-08-17T05:20:30.491Z,101177.88
2022-08-17T05:23:00.079Z,101177.72
2022-08-17T05:25:29.747Z,101172.28
2022-08-17T05:27:59.383Z,101181.56
2022-08-17T05:30:28.671Z,101180.44
2022-08-17T05:32:56.639Z,101168.44
2022-08-17T05:35:23.856Z,101173.41
2022-08-17T05:37:50.695Z,101174.53
2022-08-17T05:40:17.597Z,101174.19
2022-08-17T05:42:44.141Z,101174.53
2022-08-17T05:45:11.294Z,101178.84
2022-08-17T05:47:40.762Z,101179.63
2022-08-17T05:50:09.620Z,101178.50
2022-08-17T05:52:56.741Z,101172.78
2022-08-17T05:55:56.802Z,101176.63
2022-08-17T05:58:41.993Z,101172.47
2022-08-17T06:01:37.292Z,101168.97
2022-08-17T06:04:27.659Z,101163.03
2022-08-17T06:07:05.097Z,101157.41
2022-08-17T06:09:40.527Z,101152.59
2022-08-17T06:12:39.901Z,101154.00
2022-08-17T06:15:24.832Z,101165.84
2022-08-17T06:17:58.391Z,101164.84
2022-08-17T06:20:28.332Z,101170.75
2022-08-17T06:23:04.052Z,101169.00
2022-08-17T06:25:36.505Z,101180.16
2022-08-17T06:28:08.458Z,101182.38
2022-08-17T06:31:00.666Z,101172.72
2022-08-17T06:33:34.054Z,101176.28
2022-08-17T06:36:26.344Z,101191.28
2022-08-17T06:39:04.944Z,101201.47
2022-08-17T06:41:43.574Z,101200.97
2022-08-17T06:44:43.668Z,101208.78
2022-08-17T06:47:13.556Z,101213.75
2022-08-17T06:49:55.225Z,101219.47
2022-08-17T06:52:47.286Z,101216.06
2022-08-17T06:55:51.746Z,101216.88
2022-08-17T06:58:24.262Z,101210.78
2022-08-17T07:00:59.510Z,101215.72
2022-08-17T07:03:37.890Z,101221.16
2022-08-17T07:06:50.915Z,101217.16
2022-08-17T07:09:28.677Z,101221.00
2022-08-17T07:12:02.509Z,101214.41
2022-08-17T07:14:51.572Z,101216.03
2022-08-17T07:17:20.217Z,101217.75
2022-08-17T07:19:49.596Z,101217.75
2022-08-17T07:22:26.194Z,101219.81
2022-08-17T07:24:58.289Z,101227.53
2022-08-17T07:27:30.680Z,101225.75
2022-08-17T07:30:04.689Z,101225.41
2022-08-17T07:32:40.198Z,101232.31
2022-08-17T07:35:21.993Z,101234.56
2022-08-17T07:37:55.540Z,101234.31
2022-08-17T07:40:33.935Z,101224.72
2022-08-17T07:43:08.031Z,101230.03
2022-08-17T07:46:14.236Z,101234.41
2022-08-17T07:48:43.217Z,101225.13
2022-08-17T07:51:33.795Z,101234.63
2022-08-17T07:54:14.372Z,101229.50
2022-08-17T07:56:55.159Z,101234.03
2022-08-17T07:59:33.303Z,101235.16
2022-08-17T08:02:21.801Z,101236.75
2022-08-17T08:05:48.718Z,101240.59
2022-08-17T08:08:32.847Z,101245.53
2022-08-17T08:11:12.637Z,101248.91
2022-08-17T08:13:43.682Z,101248.25
2022-08-17T08:16:24.127Z,101250.97
2022-08-17T08:18:56.837Z,101256.22
2022-08-17T08:21:36.454Z,101258.25
2022-08-17T08:24:30.749Z,101262.66
2022-08-17T08:27:11.264Z,101265.69
2022-08-17T08:29:47.906Z,101272.69
2022-08-17T08:32:36.811Z,101269.69
2022-08-17T08:35:26.804Z,101276.69
2022-08-17T08:38:02.937Z,101286.06
2022-08-17T08:40:55.676Z,101284.97
2022-08-17T08:43:52.891Z,101289.22
2022-08-17T08:46:28.455Z,101296.66
2022-08-17T08:49:14.403Z,101300.75
2022-08-17T08:51:47.002Z,101307.22
2022-08-17T08:54:38.403Z,101310.50
2022-08-17T08:57:33.653Z,101284.66
2022-08-17T09:00:17.628Z,101273.81
2022-08-17T09:02:46.669Z,101276.75
2022-08-17T09:05:31.904Z,101279.34
2022-08-17T09:08:10.973Z,101271.38
2022-08-17T09:10:59.508Z,101271.25
2022-08-17T09:13:46.513Z,101274.59
2022-08-17T09:16:36.793Z,101285.34
2022-08-17T09:19:31.879Z,101294.25
2022-08-17T09:22:04.997Z,101311.91
2022-08-17T09:24:39.989Z,101342.91
2022-08-17T09:27:20.074Z,101391.75
2022-08-17T09:29:51.477Z,101417.56
2022-08-17T09:35:14.568Z,101396.56
2022-08-17T09:38:08.334Z,101383.31
2022-08-17T09:41:01.067Z,101347.78
2022-08-17T09:43:45.484Z,101285.81
2022-08-17T09:46:19.574Z,101251.50
2022-08-17T09:48:55.105Z,101258.94
2022-08-17T09:51:30.837Z,101247.94
2022-08-17T09:54:14.787Z,101237.38
2022-08-17T09:57:28.743Z,101229.56
2022-08-17T10:00:25.476Z,101230.66
2022-08-17T10:03:17.087Z,101237.59
2022-08-17T10:06:21.617Z,101249.28
2022-08-17T10:09:07.312Z,101274.34
2022-08-17T10:12:00.896Z,101273.66
2022-08-17T10:14:43.970Z,101266.59
2022-08-17T10:17:39.121Z,101251.84
2022-08-17T10:20:26.164Z,101260.28
2022-08-17T10:23:13.248Z,101266.09
2022-08-17T10:26:12.855Z,101273.09
2022-08-17T10:29:20.807Z,101270.81
2022-08-17T10:31:53.845Z,101279.19
2022-08-17T10:34:49.201Z,101271.31
2022-08-17T10:37:41.502Z,101287.84
2022-08-17T10:40:32.453Z,101276.66
2022-08-17T10:43:11.675Z,101276.22
2022-08-17T10:46:27.628Z,101292.28
2022-08-17T10:49:15.753Z,101304.59
2022-08-17T10:51:45.951Z,101296.97
2022-08-17T10:54:34.825Z,101301.66
2022-08-17T10:57:01.709Z,101298.69
2022-08-17T10:59:37.163Z,101308.94
2022-08-17T11:02:22.530Z,101296.31
2022-08-17T11:04:49.522Z,101304.50
2022-08-17T11:07:43.768Z,101312.59
2022-08-17T11:10:45.540Z,101321.47
2022-08-17T11:13:48.712Z,101346.41
2022-08-17T11:16:42.994Z,101364.84
2022-08-17T11:19:12.105Z,101373.38
2022-08-17T11:22:05.753Z,101384.91
2022-08-17T11:24:35.245Z,101386.81
2022-08-17T11:27:30.644Z,101392.47
2022-08-17T11:30:10.843Z,101392.69
2022-08-17T11:32:54.843Z,101389.69
2022-08-17T11:35:21.616Z,101386.88
2022-08-17T11:37:56.654Z,101376.63
2022-08-17T11:41:08.248Z,101362.41
2022-08-17T11:43:47.656Z,101365.06
2022-08-17T11:46:51.000Z,101368.91
2022-08-17T11:49:54.246Z,101357.53
2022-08-17T11:52:52.990Z,101367.28
2022-08-17T11:55:57.108Z,101364.66
2022-08-17T11:58:29.685Z,101373.53
2022-08-17T12:01:06.007Z,101379.38
2022-08-17T12:03:33.154Z,101385.19
2022-08-17T12:06:17.615Z,101372.72
2022-08-17T12:08:51.826Z,101362.19
2022-08-17T12:11:58.598Z,101368.59
2022-08-17T12:14:45.119Z,101352.56
2022-08-17T12:17:22.426Z,101350.19
2022-08-17T12:20:31.913Z,101350.06
2022-08-17T12:23:21.280Z,101349.84
2022-08-17T12:25:57.476Z,101353.03
2022-08-17T12:28:33.568Z,101355.13
2022-08-17T12:31:03.631Z,101355.25
2022-08-17T12:33:30.458Z,101344.81
2022-08-17T12:36:00.540Z,101340.50
2022-08-17T12:38:33.320Z,101340.81
2022-08-17T12:41:21.088Z,101339.88
2022-08-17T12:44:02.001Z,101343.41
2022-08-17T12:46:42.832Z,101352.06
2022-08-17T12:49:32.199Z,101342.97
2022-08-17T12:52:29.305Z,101339.28
2022-08-17T12:55:00.312Z,101329.69
2022-08-17T12:57:32.636Z,101313.69
2022-08-17T13:00:17.575Z,101327.13
2022-08-17T13:02:59.365Z,101334.63
2022-08-17T13:05:29.702Z,101344.56
2022-08-17T13:07:58.755Z,101355.94
2022-08-17T13:10:32.901Z,101359.94
2022-08-17T13:13:12.306Z,101363.44
2022-08-17T13:15:51.139Z,101363.78
2022-08-17T13:18:44.111Z,101362.31
2022-08-17T13:21:19.438Z,101354.50
2022-08-17T13:24:06.769Z,101353.38
2022-08-17T13:26:45.623Z,101358.16
2022-08-17T13:29:25.500Z,101355.09
2022-08-17T13:32:13.498Z,101350.78
2022-08-17T13:34:45.754Z,101350.97
2022-08-17T13:37:36.882Z,101350.44
2022-08-17T13:40:09.473Z,101347.91
2022-08-17T13:42:51.629Z,101343.88
2022-08-17T13:45:36.168Z,101342.59
2022-08-17T13:48:17.000Z,101338.88
2022-08-17T13:50:48.761Z,101338.19
2022-08-17T13:53:22.456Z,101333.06
2022-08-17T13:55:56.266Z,101339.78
2022-08-17T13:58:26.784Z,101336.09
2022-08-17T14:00:53.661Z,101332.22
2022-08-17T14:03:20.522Z,101324.53
2022-08-17T14:05:50.058Z,101327.84
2022-08-17T14:08:19.423Z,101323.00
2022-08-17T14:10:57.217Z,101316.59
2022-08-17T14:13:23.793Z,101316.50
2022-08-17T14:15:54.854Z,101318.56
2022-08-17T14:18:49.835Z,101314.06
2022-08-17T14:21:09.682Z,101305.66
2022-08-17T14:23:36.971Z,101305.22
2022-08-17T14:26:04.964Z,101303.22
2022-08-17T14:28:32.059Z,101308.78
2022-08-17T14:30:58.853Z,101303.25
2022-08-17T14:33:25.400Z,101301.00
2022-08-17T14:35:53.497Z,101294.16
2022-08-17T14:38:20.831Z,101295.56
2022-08-17T14:40:49.079Z,101292.75
2022-08-17T14:43:15.773Z,101288.69
2022-08-17T14:45:42.792Z,101290.81
2022-08-17T14:48:09.479Z,101289.50
2022-08-17T14:50:38.622Z,101284.81
2022-08-17T14:53:07.295Z,101287.66
2022-08-17T14:55:34.708Z,101279.47
2022-08-17T14:58:01.195Z,101279.81
2022-08-17T15:00:28.448Z,101273.22
2022-08-17T15:02:58.236Z,101276.16
2022-08-17T15:05:31.338Z,101279.34
2022-08-17T15:07:59.601Z,101287.78
2022-08-17T15:10:26.133Z,101277.22
2022-08-17T15:12:52.590Z,101276.06
2022-08-17T15:15:19.186Z,101278.44
2022-08-17T15:17:46.231Z,101274.94
2022-08-17T15:20:17.282Z,101275.97
2022-08-17T15:22:45.535Z,101266.59
2022-08-17T15:25:12.802Z,101280.56
2022-08-17T15:27:40.163Z,101282.16
2022-08-17T15:30:08.094Z,101282.84
2022-08-17T15:32:37.957Z,101278.97
2022-08-17T15:35:06.661Z,101287.31
2022-08-17T15:37:33.355Z,101284.81
2022-08-17T15:40:01.257Z,101285.75
2022-08-17T15:42:29.143Z,101283.34
2022-08-17T15:44:55.522Z,101286.00
2022-08-17T15:47:22.232Z,101287.84
2022-08-17T15:49:48.687Z,101285.63
2022-08-17T15:52:24.779Z,101285.16
2022-08-17T15:54:56.362Z,101294.41
2022-08-17T15:57:25.095Z,101287.44
2022-08-17T15:59:58.446Z,101283.00
2022-08-17T16:03:46.198Z,101283.78
2022-08-17T16:05:24.166Z,101284.34
2022-08-17T16:07:52.076Z,101278.22
2022-08-17T16:10:19.480Z,101286.88
2022-08-17T16:12:47.831Z,101290.84
2022-08-17T16:15:14.773Z,101290.38
2022-08-17T16:17:43.991Z,101289.94
2022-08-17T16:20:20.233Z,101294.03
2022-08-17T16:22:48.015Z,101289.50
2022-08-17T16:25:18.695Z,101283.78
2022-08-17T16:27:46.483Z,101286.78
2022-08-17T16:30:17.640Z,101295.19
2022-08-17T16:32:45.188Z,101297.34
2022-08-17T16:35:17.206Z,101295.84
2022-08-17T16:37:45.448Z,101298.94
2022-08-17T16:40:13.567Z,101300.75
2022-08-17T16:42:40.474Z,101294.81
2022-08-17T16:45:09.676Z,101291.97
2022-08-17T16:47:36.584Z,101288.56
2022-08-17T16:50:07.727Z,101298.38
2022-08-17T16:52:34.326Z,101300.41
2022-08-17T16:55:02.512Z,101296.56
2022-08-17T16:57:29.910Z,101310.41
2022-08-17T16:59:57.251Z,101314.03
2022-08-17T17:02:36.368Z,101311.72
2022-08-17T17:05:13.621Z,101304.25
2022-08-17T17:08:00.742Z,101304.44
2022-08-17T17:10:43.181Z,101294.88
2022-08-17T17:13:14.821Z,101288.63
2022-08-17T17:15:55.040Z,101289.53
2022-08-17T17:18:31.651Z,101297.03
2022-08-17T17:20:59.186Z,101294.88
2022-08-17T17:23:41.632Z,101292.94
2022-08-17T17:26:34.536Z,101293.03
2022-08-17T17:29:12.549Z,101299.63
2022-08-17T17:31:54.805Z,101298.50
2022-08-17T17:34:22.584Z,101312.16
2022-08-17T17:37:01.473Z,101312.16
2022-08-17T17:39:51.205Z,101312.81
2022-08-17T17:42:21.967Z,101310.78
2022-08-17T17:45:04.739Z,101327.81
2022-08-17T17:47:31.753Z,101317.22
2022-08-17T17:50:00.882Z,101326.78
2022-08-17T17:52:52.097Z,101330.16
2022-08-17T17:55:37.302Z,101327.78
2022-08-17T17:58:19.521Z,101323.00
2022-08-17T18:01:04.865Z,101318.06
2022-08-17T18:04:16.965Z,101325.47
2022-08-17T18:07:22.877Z,101328.19
2022-08-17T18:10:37.986Z,101323.06
2022-08-17T18:13:16.338Z,101332.59
2022-08-17T18:15:53.690Z,101327.00
2022-08-17T18:18:39.322Z,101330.19
2022-08-17T18:21:15.561Z,101332.00
2022-08-17T18:23:50.777Z,101347.13
2022-08-17T18:26:57.318Z,101342.88
2022-08-17T18:29:31.461Z,101349.13
2022-08-17T18:32:21.684Z,101354.44
2022-08-17T18:34:54.356Z,101364.41
2022-08-17T18:37:41.122Z,101364.28
2022-08-17T18:40:35.481Z,101362.72
2022-08-17T18:43:06.516Z,101375.97
2022-08-17T18:45:41.648Z,101363.66
2022-08-17T18:48:19.087Z,101360.19
2022-08-17T18:50:45.765Z,101354.28
2022-08-17T18:53:33.418Z,101351.91
2022-08-17T18:56:26.160Z,101351.78
2022-08-17T18:59:02.019Z,101354.63
2022-08-17T19:01:59.912Z,101356.25
2022-08-17T19:04:32.790Z,101354.19
2022-08-17T19:07:21.953Z,101349.94
2022-08-17T19:09:52.471Z,101353.63
2022-08-17T19:12:31.381Z,101360.50
2022-08-17T19:14:59.534Z,101363.56
2022-08-17T19:17:36.156Z,101364.53
2022-08-17T19:20:32.770Z,101372.06
2022-08-17T19:23:22.000Z,101381.16
2022-08-17T19:25:54.213Z,101394.63
2022-08-17T19:28:38.508Z,101399.75
2022-08-17T19:31:16.501Z,101404.72
2022-08-17T19:33:42.905Z,101412.41
2022-08-17T19:36:21.406Z,101425.22
2022-08-17T19:39:00.764Z,101421.88
2022-08-17T19:41:39.731Z,101420.06
2022-08-17T19:44:35.465Z,101420.72
2022-08-17T19:47:54.182Z,101427.28
2022-08-17T19:50:38.961Z,101433.03
2022-08-17T19:53:23.375Z,101432.53
2022-08-17T19:56:31.580Z,101440.22
2022-08-17T19:59:05.836Z,101426.13
2022-08-17T20:01:41.057Z,101423.41
2022-08-17T20:04:15.880Z,101423.91
2022-08-17T20:06:45.384Z,101424.38
2022-08-17T20:09:21.031Z,101423.91
2022-08-17T20:12:01.588Z,101421.31
2022-08-17T20:14:36.460Z,101418.09
2022-08-17T20:17:04.136Z,101422.91
2022-08-17T20:19:56.866Z,101418.09
2022-08-17T20:22:30.855Z,101417.63
2022-08-17T20:25:30.493Z,101410.91
2022-08-17T20:28:06.150Z,101406.41
2022-08-17T20:30:37.917Z,101399.22
2022-08-17T20:33:06.752Z,101403.34
2022-08-17T20:35:37.056Z,101407.53
2022-08-17T20:38:07.581Z,101396.16
2022-08-17T20:40:38.934Z,101388.31
2022-08-17T20:43:42.755Z,101385.59
2022-08-17T20:46:14.812Z,101396.31
2022-08-17T20:48:44.260Z,101397.09
2022-08-17T20:51:34.605Z,101400.13
2022-08-17T20:54:08.341Z,101406.69
2022-08-17T20:56:57.443Z,101409.53
2022-08-17T20:59:25.446Z,101406.66
2022-08-17T21:02:17.638Z,101405.03
2022-08-17T21:04:50.855Z,101408.88
2022-08-17T21:07:33.097Z,101415.75
2022-08-17T21:10:14.838Z,101414.16
2022-08-17T21:12:47.895Z,101415.09
2022-08-17T21:15:51.607Z,101415.53
2022-08-17T21:18:38.523Z,101418.88
2022-08-17T21:21:25.842Z,101424.63
2022-08-17T21:24:26.298Z,101430.69
2022-08-17T21:27:05.290Z,101431.97
2022-08-17T21:29:34.006Z,101432.75
2022-08-17T21:32:03.452Z,101442.00
2022-08-17T21:34:38.333Z,101439.63
2022-08-17T21:37:19.846Z,101436.66
2022-08-17T21:39:51.672Z,101440.31
2022-08-17T21:42:24.976Z,101446.56
2022-08-17T21:44:57.846Z,101446.41
2022-08-17T21:47:27.461Z,101449.41
2022-08-17T21:50:15.951Z,101439.66
2022-08-17T21:52:43.334Z,101458.16
2022-08-17T21:55:19.954Z,101455.28
2022-08-17T21:57:52.916Z,101463.25
2022-08-17T22:00:35.545Z,101470.28
2022-08-17T22:03:04.325Z,101462.16
2022-08-17T22:05:39.624Z,101460.53
2022-08-17T22:08:16.833Z,101452.38
2022-08-17T22:10:45.830Z,101457.81
2022-08-17T22:13:16.844Z,101463.56
2022-08-17T22:15:47.126Z,101466.28
2022-08-17T22:18:22.147Z,101467.41
2022-08-17T22:20:51.287Z,101470.13
2022-08-17T22:23:59.252Z,101471.22
2022-08-17T22:26:47.512Z,101462.88
2022-08-17T22:29:56.974Z,101454.06
2022-08-17T22:32:31.666Z,101452.94
2022-08-17T22:35:32.543Z,101454.97
2022-08-17T22:38:19.157Z,101456.41
2022-08-17T22:41:07.120Z,101468.47
2022-08-17T22:43:37.929Z,101469.41
2022-08-17T22:46:10.433Z,101473.72
2022-08-17T22:48:37.781Z,101467.50
2022-08-17T22:51:13.965Z,101465.91
2022-08-17T22:54:07.995Z,101462.19
2022-08-17T22:56:53.341Z,101471.25
2022-08-17T22:59:36.887Z,101474.59
2022-08-17T23:02:24.159Z,101483.16
2022-08-17T23:05:16.531Z,101479.66
2022-08-17T23:07:45.426Z,101482.78
2022-08-17T23:10:13.174Z,101470.59
2022-08-17T23:12:39.808Z,101477.63
2022-08-17T23:15:14.217Z,101480.97
2022-08-17T23:17:41.890Z,101479.47
2022-08-17T23:20:12.046Z,101479.16
2022-08-17T23:22:51.710Z,101475.75
2022-08-17T23:25:25.773Z,101479.34
2022-08-17T23:27:52.424Z,101476.44
2022-08-17T23:30:19.157Z,101485.38
2022-08-17T23:32:53.735Z,101487.00
2022-08-17T23:35:39.697Z,101494.66
2022-08-17T23:38:07.534Z,101500.34
2022-08-17T23:40:34.460Z,101485.69
2022-08-17T23:43:00.859Z,101496.34
2022-08-17T23:45:32.327Z,101480.81
2022-08-17T23:47:58.676Z,101482.50
2022-08-17T23:50:25.036Z,101480.06
2022-08-17T23:52:56.412Z,101470.66
2022-08-17T23:55:22.816Z,101469.34
2022-08-17T23:57:49.457Z,101470.78
